»·PEaware :: N228ME KBUR-KLAS

N228ME :: KBUR-KLAS

FLIGHT INFORMATION

Flight Status: Arrived
Operator: Privately registered:
United States
More flights under this callsign
Pilot: Donald B. (31773)
Aircraft: CESSNA 208 CARAVAN
(C208)
More flights by this aircraft type
Origin: KBUR Bob Hope-Burbank
United States
Destination: KLAS McCarran Intl
United States
More flights between these airports :: More routes between these airports
Route: +VVERA2 DAG CRESO4
File this flight plan on PilotEdge
Remarks:
Altitude:
(Current/Filed)
15,000ft
Speed:
(Current/Filed)
165kts
Departed: 19-Nov-20 07:31 PM
Arrived: 19-Nov-20 08:52 PM
Distance/Time
Traveled:
194nm/1:21
Distance/Time
To Go:
Arrived

Flight Plot

Page will automatically refresh every two minutes.

Flight plan parsing failed; only flown route is shown


Map Options




Map Legend


Flown Route
Filed Route
Departure Airport
Arrival Airport
Navaid (VOR, NDB)
Fix

Horizontal Profiles

Position Reports

Time Latitude Longitude Heading Altitude Ground
Speed
19-Nov-20 19:12 34.200700 -118.358916 72 726ft 0kts
19-Nov-20 19:13 34.200700 -118.358916 72 726ft 0kts
19-Nov-20 19:14 34.200700 -118.358916 72 726ft 0kts
19-Nov-20 19:15 34.200700 -118.358916 72 726ft 0kts
19-Nov-20 19:16 34.200700 -118.358916 72 726ft 0kts
19-Nov-20 19:17 34.200700 -118.358916 72 726ft 0kts
19-Nov-20 19:18 34.200700 -118.358916 72 726ft 0kts
19-Nov-20 19:19 34.200700 -118.358916 72 726ft 0kts
19-Nov-20 19:20 34.200700 -118.358916 72 726ft 0kts
19-Nov-20 19:21 34.200700 -118.358916 72 726ft 0kts
19-Nov-20 19:22 34.200700 -118.358916 72 726ft 0kts
19-Nov-20 19:23 34.200700 -118.358916 72 726ft 0kts
19-Nov-20 19:24 34.200700 -118.358916 72 726ft 0kts
19-Nov-20 19:25 34.200700 -118.358916 72 726ft 0kts
19-Nov-20 19:26 34.200814 -118.358769 18 727ft 10kts
19-Nov-20 19:27 34.208450 -118.360530 348 766ft 19kts
19-Nov-20 19:28 34.211482 -118.361214 36 784ft 0kts
19-Nov-20 19:29 34.211482 -118.361214 36 784ft 0kts
19-Nov-20 19:30 34.208661 -118.359457 166 765ft 73kts
19-Nov-20 19:31 34.179522 -118.366526 222 1637ft 137kts
19-Nov-20 19:32 34.150239 -118.399250 222 2665ft 147kts
19-Nov-20 19:33 34.162469 -118.425339 345 3622ft 154kts
19-Nov-20 19:34 34.203943 -118.432841 318 4634ft 155kts
19-Nov-20 19:35 34.242697 -118.453376 349 5630ft 152kts
19-Nov-20 19:36 34.284463 -118.453852 4 6609ft 150kts
19-Nov-20 19:37 34.326112 -118.444527 13 7522ft 155kts
19-Nov-20 19:38 34.368488 -118.430523 14 8349ft 159kts
19-Nov-20 19:39 34.409789 -118.413978 44 9190ft 159kts
19-Nov-20 19:40 34.438464 -118.372921 53 10006ft 161kts
19-Nov-20 19:41 34.464240 -118.328037 62 10751ft 163kts
19-Nov-20 19:42 34.483546 -118.277495 67 11452ft 166kts
19-Nov-20 19:43 34.501663 -118.225804 66 12105ft 168kts
19-Nov-20 19:44 34.515713 -118.171468 77 12726ft 169kts
19-Nov-20 19:45 34.526223 -118.115360 77 13303ft 171kts
19-Nov-20 19:46 34.537290 -118.058837 77 13858ft 173kts
19-Nov-20 19:47 34.548318 -118.001828 77 14420ft 174kts
19-Nov-20 19:48 34.559456 -117.944228 77 14870ft 180kts
19-Nov-20 19:49 34.571315 -117.882742 77 14910ft 191kts
19-Nov-20 19:50 34.583439 -117.819646 77 14900ft 193kts
19-Nov-20 19:51 34.595587 -117.756243 77 14901ft 193kts
19-Nov-20 19:52 34.607766 -117.692897 77 14904ft 193kts
19-Nov-20 19:53 34.619950 -117.629421 77 14906ft 193kts
19-Nov-20 19:54 34.632076 -117.566041 77 14906ft 193kts
19-Nov-20 19:55 34.644185 -117.502567 77 14907ft 193kts
19-Nov-20 19:56 34.656284 -117.438952 77 14906ft 193kts
19-Nov-20 19:57 34.668317 -117.375495 77 14907ft 193kts
19-Nov-20 19:58 34.680376 -117.311690 77 14839ft 195kts
19-Nov-20 19:59 34.692468 -117.247554 77 14814ft 194kts
19-Nov-20 20:00 34.704430 -117.183867 77 14816ft 193kts
19-Nov-20 20:01 34.716337 -117.120331 77 14814ft 193kts
19-Nov-20 20:02 34.728234 -117.056619 77 14815ft 193kts
19-Nov-20 20:03 34.746589 -116.995695 60 14815ft 193kts
19-Nov-20 20:04 34.775179 -116.940505 57 14816ft 193kts
19-Nov-20 20:05 34.803952 -116.885054 58 14814ft 193kts
19-Nov-20 20:06 34.832534 -116.829924 58 14813ft 193kts
19-Nov-20 20:07 34.861229 -116.774474 58 14815ft 193kts
19-Nov-20 20:08 34.889869 -116.719047 58 14796ft 194kts
19-Nov-20 20:09 34.918501 -116.663552 58 14787ft 193kts
19-Nov-20 20:10 34.947075 -116.608074 58 14788ft 193kts
19-Nov-20 20:11 34.974573 -116.551829 62 14787ft 193kts
19-Nov-20 20:12 34.999897 -116.493860 61 14787ft 193kts
19-Nov-20 20:13 35.025542 -116.436326 61 14787ft 193kts
19-Nov-20 20:14 35.051091 -116.378666 61 14788ft 193kts
19-Nov-20 20:15 35.076698 -116.320823 61 14787ft 193kts
19-Nov-20 20:16 35.102184 -116.263136 61 14787ft 193kts
19-Nov-20 20:17 35.127615 -116.205487 61 14788ft 193kts
19-Nov-20 20:18 35.153166 -116.147465 61 14779ft 193kts
19-Nov-20 20:19 35.178586 -116.089657 61 14790ft 193kts
19-Nov-20 20:20 35.203909 -116.031956 62 14790ft 193kts
19-Nov-20 20:21 35.229908 -115.972616 62 14436ft 203kts
19-Nov-20 20:22 35.256590 -115.911606 62 13928ft 200kts
19-Nov-20 20:24 35.282167 -115.853034 62 13392ft 191kts
19-Nov-20 20:25 35.307374 -115.795967 58 12899ft 189kts
19-Nov-20 20:26 35.340674 -115.746555 46 12406ft 188kts
19-Nov-20 20:27 35.376336 -115.699714 47 11914ft 187kts
19-Nov-20 20:28 35.410452 -115.654047 47 11792ft 177kts
19-Nov-20 20:29 35.443360 -115.610092 47 11799ft 173kts
19-Nov-20 20:30 35.476039 -115.566354 47 11801ft 173kts
19-Nov-20 20:31 35.508650 -115.522671 47 11796ft 173kts
19-Nov-20 20:32 35.541202 -115.479024 47 11796ft 173kts
19-Nov-20 20:33 35.573738 -115.435348 47 11798ft 173kts
19-Nov-20 20:34 35.606313 -115.391560 47 11798ft 173kts
19-Nov-20 20:35 35.638778 -115.347864 47 11797ft 173kts
19-Nov-20 20:36 35.671263 -115.304085 47 11799ft 173kts
19-Nov-20 20:37 35.703822 -115.260156 47 11796ft 173kts
19-Nov-20 20:38 35.736066 -115.216589 47 11796ft 173kts
19-Nov-20 20:39 35.770680 -115.172479 42 11446ft 184kts
19-Nov-20 20:40 35.809277 -115.129167 42 10665ft 189kts
19-Nov-20 20:40 35.841737 -115.092700 42 9990ft 189kts
19-Nov-20 20:42 35.887040 -115.041743 42 9045ft 188kts
19-Nov-20 20:42 35.918799 -115.005976 42 8353ft 184kts
19-Nov-20 20:44 35.966262 -114.961647 35 7417ft 182kts
19-Nov-20 20:44 36.001966 -114.935252 29 6736ft 178kts
19-Nov-20 20:46 36.056442 -114.926582 333 5776ft 174kts
19-Nov-20 20:46 36.074219 -114.968241 267 4572ft 175kts
19-Nov-20 20:48 36.073785 -115.025541 269 3582ft 120kts
19-Nov-20 20:48 36.073771 -115.055871 268 3144ft 89kts
19-Nov-20 20:49 36.073721 -115.084863 269 2702ft 80kts
19-Nov-20 20:50 36.073689 -115.112839 268 2374ft 83kts
19-Nov-20 20:51 36.073551 -115.137122 266 2087ft 27kts
19-Nov-20 20:52 36.074107 -115.144591 293 2119ft 19kts
19-Nov-20 20:53 36.074689 -115.145843 302 2123ft 5kts
19-Nov-20 20:54 36.078830 -115.146938 68 2128ft 26kts
19-Nov-20 20:55 36.078970 -115.142415 15 2110ft 20kts
19-Nov-20 20:56 36.080223 -115.140782 34 2102ft 0kts

Navigation Log

Ident Type
Flight plan parsing failed, navigation log unavailable